Time;durP1;ratioP1;P1;durP2;ratioP2;P2;SDS_P1;SDS_P2;PMS_P1;PMS_P2;Temp;Humidity;BMP_temperature;BMP_pressure;BME280_temperature;BME280_humidity;BME280_pressure;Samples;Min_cycle;Max_cycle;Signal;HPM_P1;HPM_P2
2023/10/24 00:00:30;;;;;;;0.10;0.10;;;;;;;13.76;81.19;99357.22;7353074;19;20414;-56
2023/10/24 00:02:56;;;;;;;0.03;0.03;;;;;;;13.70;80.90;99353.16;7359833;19;20863;-58
2023/10/24 00:05:21;;;;;;;0.10;0.10;;;;;;;13.71;80.59;99354.00;7347539;19;20033;-59
2023/10/24 00:07:47;;;;;;;0.10;0.10;;;;;;;13.29;80.25;99299.59;7360745;19;20648;-57
2023/10/24 00:10:13;;;;;;;0.10;0.10;;;;;;;13.60;80.42;99362.47;7352160;19;20014;-57
2023/10/24 00:12:38;;;;;;;0.00;0.00;;;;;;;13.54;80.25;99357.59;7354906;19;20086;-58
2023/10/24 00:15:04;;;;;;;0.10;0.10;;;;;;;13.47;80.96;99356.22;7349787;19;20007;-59
2023/10/24 00:17:29;;;;;;;0.10;0.10;;;;;;;13.39;81.09;99340.09;7358516;19;20018;-58
2023/10/24 00:19:55;;;;;;;0.00;0.00;;;;;;;13.39;81.40;99350.59;7347026;19;20717;-57
2023/10/24 00:22:20;;;;;;;0.10;0.10;;;;;;;13.36;81.75;99335.00;7353897;19;20082;-58
2023/10/24 00:24:45;;;;;;;0.10;0.10;;;;;;;13.29;81.94;99331.06;7353122;19;20011;-58
2023/10/24 00:27:12;;;;;;;0.17;0.17;;;;;;;13.26;82.00;99320.72;7352270;19;20082;-57
2023/10/24 00:29:37;;;;;;;0.10;0.10;;;;;;;13.19;82.11;99304.47;7354894;19;20031;-58
2023/10/24 00:32:03;;;;;;;0.10;0.10;;;;;;;13.32;81.85;99323.00;7357841;19;20010;-58
2023/10/24 00:34:28;;;;;;;0.10;0.10;;;;;;;13.32;82.23;99315.13;7357892;19;20010;-59
2023/10/24 00:36:54;;;;;;;0.10;0.10;;;;;;;13.31;82.03;99326.56;7355084;19;20498;-58
2023/10/24 00:39:19;;;;;;;0.10;0.10;;;;;;;13.31;82.33;99318.69;7356585;19;20025;-58
2023/10/24 00:41:45;;;;;;;0.10;0.10;;;;;;;13.32;82.25;99330.88;7362887;19;20101;-58
2023/10/24 00:44:10;;;;;;;0.08;0.08;;;;;;;13.31;81.86;99329.19;7358430;19;20011;-58
2023/10/24 00:46:39;;;;;;;0.10;0.10;;;;;;;13.32;82.37;99325.63;7357716;19;20471;-58
2023/10/24 00:49:05;;;;;;;0.10;0.10;;;;;;;13.31;81.87;99318.69;7357217;19;20002;-59
2023/10/24 00:51:31;;;;;;;0.08;0.08;;;;;;;13.19;82.42;99300.06;7364042;19;20028;-58
2023/10/24 00:53:58;;;;;;;0.08;0.08;;;;;;;13.31;82.46;99308.19;7343141;19;20018;-56
2023/10/24 00:56:24;;;;;;;0.10;0.10;;;;;;;13.32;82.24;99299.41;7361248;19;20043;-59
2023/10/24 00:58:50;;;;;;;0.00;0.00;;;;;;;13.33;82.28;99301.09;7354475;19;20034;-57
2023/10/24 01:01:17;;;;;;;0.10;0.10;;;;;;;13.24;82.00;99300.69;7362224;19;20106;-58
2023/10/24 01:03:43;;;;;;;0.10;0.10;;;;;;;13.33;81.84;99316.81;7358975;19;20014;-58
2023/10/24 01:06:09;;;;;;;0.10;0.10;;;;;;;13.32;81.99;99312.50;7354365;19;20018;-58
2023/10/24 01:08:35;;;;;;;0.10;0.10;;;;;;;13.32;82.04;99308.09;7348862;19;20002;-58
2023/10/24 01:11:01;;;;;;;0.00;0.00;;;;;;;13.31;82.50;99302.97;7353903;19;20957;-58
2023/10/24 01:13:27;;;;;;;0.10;0.10;;;;;;;13.33;82.15;99303.72;7349292;19;20094;-57
2023/10/24 01:15:52;;;;;;;0.00;0.00;;;;;;;13.34;81.99;99302.81;7354540;19;20010;-58
2023/10/24 01:18:18;;;;;;;0.10;0.10;;;;;;;13.35;81.95;99294.00;7353943;19;20086;-58
2023/10/24 01:20:43;;;;;;;0.10;0.10;;;;;;;13.35;82.06;99288.75;7349578;19;20010;-58
2023/10/24 01:23:09;;;;;;;0.10;0.10;;;;;;;13.35;82.18;99263.38;7353500;19;20468;-58
2023/10/24 01:25:38;;;;;;;0.10;0.10;;;;;;;13.39;82.00;99266.69;7355697;19;20096;-58
2023/10/24 01:28:05;;;;;;;0.10;0.10;;;;;;;13.38;82.22;99267.59;7353709;19;20036;-58
2023/10/24 01:30:30;;;;;;;0.05;0.05;;;;;;;13.37;82.23;99271.16;7360327;19;20010;-58
2023/10/24 01:32:55;;;;;;;0.10;0.10;;;;;;;13.37;82.24;99281.63;7355618;19;20027;-58
2023/10/24 01:35:21;;;;;;;0.10;0.10;;;;;;;13.39;82.19;99285.03;7360833;19;20066;-56
2023/10/24 01:37:46;;;;;;;0.15;0.15;;;;;;;13.38;82.25;99293.81;7359492;19;20017;-57
2023/10/24 01:40:12;;;;;;;0.10;0.10;;;;;;;13.37;81.77;99298.22;7360902;19;20010;-59
2023/10/24 01:42:38;;;;;;;0.10;0.10;;;;;;;13.34;82.22;99292.31;7361116;19;20698;-59
2023/10/24 01:45:04;;;;;;;0.13;0.13;;;;;;;13.34;81.85;99289.69;7357957;19;20034;-59
2023/10/24 01:47:30;;;;;;;0.00;0.00;;;;;;;13.35;81.81;99289.59;7361201;19;20082;-58
2023/10/24 01:49:55;;;;;;;0.05;0.05;;;;;;;13.32;81.71;99296.78;7358531;19;20106;-57
2023/10/24 01:52:21;;;;;;;0.10;0.10;;;;;;;13.35;81.73;99283.50;7360020;19;20021;-58
2023/10/24 01:54:46;;;;;;;0.10;0.10;;;;;;;13.33;82.06;99285.34;7357836;19;20014;-58
2023/10/24 01:57:11;;;;;;;0.10;0.10;;;;;;;13.34;81.63;99281.81;7364653;19;20019;-57
2023/10/24 01:59:37;;;;;;;0.10;0.10;;;;;;;13.33;81.75;99285.34;7356162;19;20474;-58
2023/10/24 02:02:03;;;;;;;0.10;0.10;;;;;;;13.33;82.08;99280.09;7358741;19;20460;-58
2023/10/24 02:04:28;;;;;;;0.10;0.10;;;;;;;13.32;81.64;99278.44;7363798;19;20011;-58
2023/10/24 02:06:54;;;;;;;0.10;0.10;;;;;;;13.31;81.84;99287.22;7360404;19;20010;-58
2023/10/24 02:09:19;;;;;;;0.10;0.10;;;;;;;13.28;81.81;99298.75;7361696;19;20027;-57
2023/10/24 02:11:44;;;;;;;0.10;0.10;;;;;;;13.29;81.77;99294.34;7363772;19;20022;-57
2023/10/24 02:14:10;;;;;;;0.10;0.10;;;;;;;13.28;81.58;99287.38;7367199;19;20018;-57
2023/10/24 02:16:35;;;;;;;0.10;0.10;;;;;;;13.26;81.59;99279.63;7363983;19;20011;-57
2023/10/24 02:19:00;;;;;;;0.10;0.10;;;;;;;13.26;81.66;99273.53;7359007;19;20015;-58
2023/10/24 02:21:26;;;;;;;0.10;0.10;;;;;;;13.23;82.03;99280.66;7358701;19;20006;-58
2023/10/24 02:23:51;;;;;;;0.10;0.10;;;;;;;13.22;81.51;99284.19;7360369;19;20473;-58
2023/10/24 02:26:17;;;;;;;0.10;0.10;;;;;;;13.09;81.88;99259.56;7369575;19;20007;-56
2023/10/24 02:28:42;;;;;;;0.10;0.10;;;;;;;13.18;81.54;99271.34;7365374;19;20462;-59
2023/10/24 02:31:08;;;;;;;0.10;0.10;;;;;;;13.16;81.62;99263.53;7370861;19;20006;-58
2023/10/24 02:33:33;;;;;;;0.10;0.10;;;;;;;13.15;81.48;99254.00;7364149;19;20018;-57
2023/10/24 02:36:09;;;;;;;0.10;0.10;;;;;;;13.17;81.80;99259.13;7367122;19;20465;-58
2023/10/24 02:38:34;;;;;;;0.10;0.10;;;;;;;13.14;81.64;99248.84;7367975;19;20022;-58
2023/10/24 02:41:00;;;;;;;0.10;0.10;;;;;;;13.09;81.45;99251.72;7368460;19;20007;-58
2023/10/24 02:43:26;;;;;;;0.10;0.10;;;;;;;13.12;81.96;99255.94;7368108;19;20015;-57
2023/10/24 02:45:51;;;;;;;0.00;0.00;;;;;;;13.08;82.04;99250.03;7356245;19;20649;-58
2023/10/24 02:48:17;;;;;;;0.10;0.10;;;;;;;13.08;81.66;99250.03;7368435;19;20026;-58
2023/10/24 02:50:43;;;;;;;0.10;0.10;;;;;;;13.07;82.10;99242.22;7365072;19;20027;-58
2023/10/24 02:53:09;;;;;;;0.10;0.10;;;;;;;13.05;81.69;99242.34;7368174;19;20006;-58
2023/10/24 02:55:34;;;;;;;0.03;0.03;;;;;;;13.04;82.17;99251.13;7371049;19;20831;-57
2023/10/24 02:58:00;;;;;;;0.03;0.03;;;;;;;13.04;81.84;99248.50;7368374;19;20014;-59
2023/10/24 03:00:25;;;;;;;0.08;0.08;;;;;;;13.02;81.79;99246.88;7371851;19;20087;-57
2023/10/24 03:02:50;;;;;;;0.00;0.00;;;;;;;13.04;81.96;99250.28;7358556;19;20017;-57
2023/10/24 03:05:16;;;;;;;0.10;0.10;;;;;;;13.03;82.32;99246.81;7366433;19;20677;-58
2023/10/24 03:07:41;;;;;;;0.10;0.10;;;;;;;13.02;81.90;99255.59;7368175;19;20028;-58
2023/10/24 03:10:07;;;;;;;0.10;0.10;;;;;;;12.94;82.28;99237.69;7365416;19;20717;-58
2023/10/24 03:12:33;;;;;;;0.10;0.10;;;;;;;13.01;82.28;99240.81;7367642;19;19994;-59
2023/10/24 03:14:58;;;;;;;0.10;0.10;;;;;;;13.01;81.88;99235.56;7362851;19;20011;-59
2023/10/24 03:17:24;;;;;;;0.10;0.10;;;;;;;12.98;81.95;99227.91;7342633;19;20034;-58
2023/10/24 03:19:49;;;;;;;0.10;0.10;;;;;;;12.97;82.21;99226.19;7368044;19;20015;-58
2023/10/24 03:22:14;;;;;;;0.10;0.10;;;;;;;13.02;82.28;99223.31;7365250;19;20086;-58
2023/10/24 03:24:40;;;;;;;0.10;0.10;;;;;;;13.01;81.90;99226.88;7369722;19;20494;-59
2023/10/24 03:27:07;;;;;;;0.10;0.10;;;;;;;13.02;82.21;99216.28;7344598;19;20140;-58
2023/10/24 03:29:35;;;;;;;0.10;0.10;;;;;;;13.04;82.00;99232.78;7366650;19;20026;-59
2023/10/24 03:32:01;;;;;;;0.10;0.10;;;;;;;12.97;81.95;99220.94;7361330;19;20758;-58
2023/10/24 03:34:28;;;;;;;0.10;0.10;;;;;;;13.03;81.75;99220.63;7366619;19;20082;-57
2023/10/24 03:36:54;;;;;;;0.10;0.10;;;;;;;12.99;81.99;99212.06;7363251;19;20024;-59
2023/10/24 03:39:19;;;;;;;0.10;0.10;;;;;;;12.95;82.20;99201.84;7363511;19;20014;-58
2023/10/24 03:41:44;;;;;;;0.10;0.10;;;;;;;13.03;82.24;99215.38;7366788;19;20470;-59
2023/10/24 03:44:10;;;;;;;0.10;0.10;;;;;;;13.04;81.88;99211.81;7365608;19;20111;-58
2023/10/24 03:46:35;;;;;;;0.10;0.10;;;;;;;13.04;82.26;99209.19;7361126;19;20014;-57
2023/10/24 03:49:02;;;;;;;0.00;0.00;;;;;;;13.07;82.21;99210.78;7355226;19;20002;-59
2023/10/24 03:51:27;;;;;;;0.10;0.10;;;;;;;13.08;82.19;99202.84;7367099;19;20474;-58
2023/10/24 03:53:53;;;;;;;0.10;0.10;;;;;;;13.07;81.99;99201.16;7366948;19;20115;-58
2023/10/24 03:56:18;;;;;;;0.10;0.10;;;;;;;13.06;81.77;99199.47;7363405;19;20708;-58
2023/10/24 03:58:44;;;;;;;0.10;0.10;;;;;;;12.92;81.78;99176.66;7362253;19;20014;-59
2023/10/24 04:01:09;;;;;;;0.00;0.00;;;;;;;13.11;82.24;99202.66;7363301;19;20094;-59
2023/10/24 04:03:35;;;;;;;0.00;0.00;;;;;;;12.97;81.89;99177.25;7361682;19;20314;-57
2023/10/24 04:06:00;;;;;;;0.00;0.00;;;;;;;13.12;81.86;99201.72;7366310;19;20344;-59
2023/10/24 04:08:26;;;;;;;0.10;0.10;;;;;;;13.13;82.08;99199.97;7368803;19;20015;-59
2023/10/24 04:10:51;;;;;;;0.10;0.10;;;;;;;13.12;81.92;99199.09;7359868;19;20093;-59
2023/10/24 04:13:16;;;;;;;0.10;0.10;;;;;;;13.15;81.69;99193.69;7363865;19;20022;-59
2023/10/24 04:15:42;;;;;;;0.10;0.10;;;;;;;13.16;81.61;99195.38;7366576;19;20005;-59
2023/10/24 04:18:07;;;;;;;0.10;0.10;;;;;;;13.15;81.47;99192.84;7363447;19;20017;-58
2023/10/24 04:20:33;;;;;;;0.10;0.10;;;;;;;13.16;81.86;99187.53;7348100;19;20017;-59
2023/10/24 04:23:02;;;;;;;0.10;0.10;;;;;;;13.18;81.52;99188.28;7362843;19;20049;-56
2023/10/24 04:25:29;;;;;;;0.00;0.00;;;;;;;13.12;81.85;99175.53;7357263;19;21067;-59
2023/10/24 04:27:56;;;;;;;0.10;0.10;;;;;;;13.21;81.62;99188.13;7365255;19;20715;-59
2023/10/24 04:30:21;;;;;;;0.10;0.10;;;;;;;13.23;81.67;99191.53;7362063;19;20006;-59
2023/10/24 04:32:47;;;;;;;0.10;0.10;;;;;;;13.26;81.52;99189.66;7362888;19;20529;-59
2023/10/24 04:35:13;;;;;;;0.03;0.03;;;;;;;13.28;81.62;99187.78;7364584;19;20037;-59
2023/10/24 04:37:39;;;;;;;0.00;0.00;;;;;;;13.22;81.54;99187.19;7365059;19;20014;-57
2023/10/24 04:40:07;;;;;;;0.10;0.10;;;;;;;13.29;81.36;99184.25;7357527;19;20711;-59
2023/10/24 04:42:32;;;;;;;0.10;0.10;;;;;;;13.31;81.53;99182.38;7365225;19;20067;-59
2023/10/24 04:44:57;;;;;;;0.10;0.10;;;;;;;13.30;81.22;99176.28;7360158;19;20749;-58
2023/10/24 04:47:24;;;;;;;0.10;0.10;;;;;;;13.33;81.13;99183.09;7363422;19;20021;-59
2023/10/24 04:49:49;;;;;;;0.10;0.10;;;;;;;13.33;81.21;99177.88;7362743;19;20086;-58
2023/10/24 04:52:15;;;;;;;0.10;0.10;;;;;;;13.34;81.39;99179.56;7358615;19;20399;-58
2023/10/24 04:54:40;;;;;;;0.10;0.10;;;;;;;13.35;81.22;99176.00;7360919;19;20014;-58
2023/10/24 04:57:06;;;;;;;0.10;0.10;;;;;;;13.33;81.09;99172.63;7360811;19;20006;-59
2023/10/24 04:59:31;;;;;;;0.08;0.08;;;;;;;13.36;81.46;99177.69;7361664;19;20006;-59
2023/10/24 05:01:57;;;;;;;0.10;0.10;;;;;;;13.36;81.19;99170.66;7363169;19;20018;-58
2023/10/24 05:04:22;;;;;;;0.10;0.10;;;;;;;13.37;81.33;99171.50;7362605;19;20006;-58
2023/10/24 05:06:47;;;;;;;0.10;0.10;;;;;;;13.38;80.98;99173.19;7359897;19;20018;-58
2023/10/24 05:09:16;;;;;;;0.10;0.10;;;;;;;13.38;81.42;99162.72;7362672;19;20010;-57
2023/10/24 05:11:41;;;;;;;0.10;0.10;;;;;;;13.37;81.35;99155.78;7364274;19;20021;-59
2023/10/24 05:14:07;;;;;;;0.10;0.10;;;;;;;13.39;81.18;99156.56;7363342;19;20006;-59
2023/10/24 05:16:32;;;;;;;0.10;0.10;;;;;;;13.39;81.13;99148.69;7364776;19;20065;-59
2023/10/24 05:18:57;;;;;;;0.10;0.10;;;;;;;13.38;80.97;99147.84;7361666;19;20725;-59
2023/10/24 05:21:23;;;;;;;0.10;0.10;;;;;;;13.37;81.21;99150.53;7357099;19;20096;-59
2023/10/24 05:23:48;;;;;;;0.10;0.10;;;;;;;13.35;80.97;99148.00;7360852;19;20030;-58
2023/10/24 05:26:14;;;;;;;0.10;0.10;;;;;;;13.35;81.31;99149.78;7364472;19;20432;-58
2023/10/24 05:28:39;;;;;;;0.10;0.10;;;;;;;13.32;81.01;99147.34;7357420;19;20724;-59
2023/10/24 05:31:07;;;;;;;0.00;0.00;;;;;;;13.27;80.87;99149.38;7358450;19;20026;-59
2023/10/24 05:33:34;;;;;;;0.10;0.10;;;;;;;13.30;80.97;99160.56;7364013;19;20015;-57
2023/10/24 05:35:59;;;;;;;0.10;0.10;;;;;;;12.97;81.39;99106.50;7356873;19;20010;-59
2023/10/24 05:38:24;;;;;;;0.10;0.10;;;;;;;13.27;81.33;99162.50;7365638;19;20368;-59
2023/10/24 05:40:50;;;;;;;0.10;0.10;;;;;;;13.26;80.86;99152.94;7362859;19;20024;-58
2023/10/24 05:43:15;;;;;;;0.10;0.10;;;;;;;13.23;80.80;99159.22;7359011;19;20491;-59
2023/10/24 05:45:41;;;;;;;0.10;0.10;;;;;;;13.18;80.91;99154.22;7357171;19;20188;-58
2023/10/24 05:48:06;;;;;;;0.03;0.03;;;;;;;12.70;80.88;99077.50;7361408;19;20014;-59
2023/10/24 05:50:33;;;;;;;0.10;0.10;;;;;;;13.15;80.60;99158.78;7356361;19;20010;-59
2023/10/24 05:52:58;;;;;;;0.10;0.10;;;;;;;12.90;80.68;99130.53;7369018;19;20007;-59
2023/10/24 05:55:24;;;;;;;0.10;0.10;;;;;;;13.06;80.43;99162.78;7369573;19;20822;-58
2023/10/24 05:57:49;;;;;;;0.10;0.10;;;;;;;13.04;80.57;99164.66;7362741;19;20074;-59
2023/10/24 06:00:14;;;;;;;0.00;0.00;;;;;;;13.01;80.90;99159.56;7361126;19;20027;-59
2023/10/24 06:02:40;;;;;;;0.10;0.10;;;;;;;12.98;80.78;99165.00;7359749;19;20094;-59
2023/10/24 06:05:06;;;;;;;0.10;0.10;;;;;;;12.90;81.12;99157.56;7369059;19;20003;-59
2023/10/24 06:07:31;;;;;;;0.00;0.00;;;;;;;12.92;80.98;99158.31;7369563;19;20090;-59
2023/10/24 06:09:57;;;;;;;0.10;0.10;;;;;;;12.90;81.27;99151.50;7363894;19;20110;-58
2023/10/24 06:12:22;;;;;;;0.10;0.10;;;;;;;12.76;81.21;99135.69;7370296;19;20046;-59
2023/10/24 06:14:47;;;;;;;0.05;0.05;;;;;;;12.87;81.10;99156.88;7367582;19;20467;-59
2023/10/24 06:17:17;;;;;;;0.00;0.00;;;;;;;12.86;81.13;99160.44;7361940;19;20014;-59
2023/10/24 06:19:48;;;;;;;0.10;0.10;;;;;;;12.83;81.27;99161.47;7365687;19;20013;-59
2023/10/24 06:22:14;;;;;;;0.00;0.00;;;;;;;12.82;81.25;99164.16;7363640;19;20030;-59
2023/10/24 06:24:40;;;;;;;0.10;0.10;;;;;;;12.79;81.40;99159.97;7366460;19;20011;-59
2023/10/24 06:27:05;;;;;;;0.10;0.10;;;;;;;12.78;81.70;99166.13;7362581;19;20491;-58
2023/10/24 06:29:31;;;;;;;0.10;0.10;;;;;;;12.76;81.30;99156.66;7363223;19;20515;-59
2023/10/24 06:31:57;;;;;;;0.10;0.10;;;;;;;12.72;81.77;99156.84;7362979;19;20983;-59
2023/10/24 06:34:22;;;;;;;0.00;0.00;;;;;;;12.73;81.87;99166.38;7366957;19;20027;-58
2023/10/24 06:36:47;;;;;;;0.00;0.00;;;;;;;12.71;81.39;99163.00;7363414;19;20017;-59
2023/10/24 06:39:13;;;;;;;0.03;0.03;;;;;;;12.71;81.43;99163.00;7361166;19;20013;-59
2023/10/24 06:41:38;;;;;;;0.10;0.10;;;;;;;12.71;81.43;99167.38;7370273;19;20011;-59
2023/10/24 06:44:04;;;;;;;0.10;0.10;;;;;;;12.68;81.92;99163.19;7367377;19;20550;-59
2023/10/24 06:46:29;;;;;;;0.00;0.00;;;;;;;12.63;81.46;99159.97;7369316;19;20014;-59
2023/10/24 06:48:55;;;;;;;0.10;0.10;;;;;;;12.67;81.63;99169.34;7361229;19;20313;-58
2023/10/24 06:51:20;;;;;;;0.00;0.00;;;;;;;12.61;81.85;99161.81;7359606;19;20430;-59
2023/10/24 06:53:46;;;;;;;0.10;0.10;;;;;;;12.61;81.73;99161.81;7369061;19;20003;-58
2023/10/24 06:56:11;;;;;;;0.10;0.10;;;;;;;12.64;81.81;99177.38;7368014;19;20017;-59
2023/10/24 06:58:37;;;;;;;0.13;0.13;;;;;;;12.63;81.79;99170.44;7365673;19;20455;-59
2023/10/24 07:01:03;;;;;;;0.10;0.10;;;;;;;12.49;81.63;99166.91;7364003;19;20039;-59
2023/10/24 07:03:28;;;;;;;0.05;0.05;;;;;;;12.63;82.08;99191.41;7366496;19;20009;-59
2023/10/24 07:05:54;;;;;;;0.10;0.10;;;;;;;12.61;81.88;99193.25;7366103;19;20467;-59
2023/10/24 07:08:20;;;;;;;0.00;0.00;;;;;;;12.60;81.63;99180.25;7366807;19;20029;-57
2023/10/24 07:10:46;;;;;;;0.03;0.03;;;;;;;12.62;81.78;99188.84;7353486;19;20014;-59
2023/10/24 07:13:11;;;;;;;0.08;0.08;;;;;;;12.49;81.72;99172.97;7366964;19;20334;-59
2023/10/24 07:15:38;;;;;;;0.00;0.00;;;;;;;12.54;82.14;99170.97;7367605;19;20011;-59
2023/10/24 07:18:04;;;;;;;0.10;0.10;;;;;;;12.59;81.68;99182.03;7373072;19;20010;-59
2023/10/24 07:20:30;;;;;;;0.10;0.10;;;;;;;12.60;82.20;99195.97;7356110;19;20030;-59
2023/10/24 07:22:55;;;;;;;0.10;0.10;;;;;;;12.60;82.21;99196.78;7364946;19;20381;-59
2023/10/24 07:25:20;;;;;;;0.10;0.10;;;;;;;12.61;82.13;99201.09;7364069;19;20010;-59
2023/10/24 07:27:46;;;;;;;0.10;0.10;;;;;;;12.53;82.05;99190.22;7368622;19;20006;-59
2023/10/24 07:30:11;;;;;;;0.10;0.10;;;;;;;12.58;81.51;99193.44;7356987;19;20006;-59
2023/10/24 07:32:37;;;;;;;0.10;0.10;;;;;;;12.57;81.20;99186.50;7363361;19;20006;-58
2023/10/24 07:35:03;;;;;;;0.10;0.10;;;;;;;12.63;81.27;99204.50;7364088;19;20014;-55
2023/10/24 07:37:29;;;;;;;0.00;0.00;;;;;;;12.63;81.07;99195.81;7364711;19;20011;-58
2023/10/24 07:39:54;;;;;;;0.10;0.10;;;;;;;12.59;81.45;99192.50;7366339;19;20026;-57
2023/10/24 07:42:20;;;;;;;0.10;0.10;;;;;;;12.57;81.54;99190.88;7363307;19;20419;-58
2023/10/24 07:44:45;;;;;;;0.10;0.10;;;;;;;12.54;81.74;99186.66;7341731;19;20002;-59
2023/10/24 07:47:11;;;;;;;0.10;0.10;;;;;;;12.51;81.93;99185.97;7362739;19;20010;-57
2023/10/24 07:49:36;;;;;;;0.00;0.00;;;;;;;12.49;81.94;99183.44;7363215;19;20015;-56
2023/10/24 07:52:03;;;;;;;0.10;0.10;;;;;;;12.48;81.74;99188.78;7357437;19;20652;-58
2023/10/24 07:54:30;;;;;;;0.10;0.10;;;;;;;12.46;81.83;99188.84;7363964;19;20522;-58
2023/10/24 07:56:55;;;;;;;0.10;0.10;;;;;;;12.44;81.91;99195.94;7365970;19;20010;-57
2023/10/24 07:59:20;;;;;;;0.10;0.10;;;;;;;12.42;82.22;99192.59;7362198;19;20407;-58
2023/10/24 08:01:46;;;;;;;0.10;0.10;;;;;;;12.41;82.05;99191.72;7364095;19;20106;-57
2023/10/24 08:04:11;;;;;;;0.10;0.10;;;;;;;12.39;82.18;99187.50;7364743;19;20015;-58
2023/10/24 08:06:36;;;;;;;0.10;0.10;;;;;;;12.41;82.18;99185.63;7362940;19;20037;-58
2023/10/24 08:09:02;;;;;;;0.10;0.10;;;;;;;12.43;82.49;99186.41;7364851;19;20014;-57
2023/10/24 08:11:27;;;;;;;0.10;0.10;;;;;;;12.35;82.46;99167.66;7360026;19;20013;-57
2023/10/24 08:13:53;;;;;;;0.10;0.10;;;;;;;12.58;82.53;99198.66;7364040;19;20742;-58
2023/10/24 08:16:20;;;;;;;0.00;0.00;;;;;;;12.64;82.38;99195.72;7364680;19;20006;-58
2023/10/24 08:18:45;;;;;;;0.05;0.05;;;;;;;12.56;82.33;99171.69;7364986;19;20474;-58
2023/10/24 08:21:12;;;;;;;0.10;0.10;;;;;;;12.62;82.09;99189.72;7364468;19;20007;-58
2023/10/24 08:23:38;;;;;;;0.10;0.10;;;;;;;12.75;82.08;99194.25;7365483;19;20553;-58
2023/10/24 08:26:04;;;;;;;0.00;0.00;;;;;;;12.81;82.00;99193.91;7361345;19;20099;-58
2023/10/24 08:28:29;;;;;;;0.05;0.05;;;;;;;12.83;82.24;99186.84;7358698;19;20081;-58
2023/10/24 08:30:54;;;;;;;0.00;0.00;;;;;;;12.71;82.09;99164.78;7364236;19;20046;-58
2023/10/24 08:33:20;;;;;;;0.00;0.00;;;;;;;12.91;82.26;99200.34;7365529;19;20030;-58
2023/10/24 08:35:46;;;;;;;0.10;0.10;;;;;;;12.95;82.06;99201.84;7360216;19;20022;-58
2023/10/24 08:38:12;;;;;;;0.00;0.00;;;;;;;12.98;81.88;99191.22;7373438;19;20031;-57
2023/10/24 08:40:39;;;;;;;0.00;0.00;;;;;;;13.01;82.08;99201.50;7371364;19;20741;-58
2023/10/24 08:43:04;;;;;;;0.10;0.10;;;;;;;13.04;81.97;99185.63;7366131;19;20013;-57
2023/10/24 08:45:30;;;;;;;0.10;0.10;;;;;;;13.09;81.93;99193.22;7366266;19;20006;-58
2023/10/24 08:47:58;;;;;;;0.10;0.10;;;;;;;13.12;81.75;99188.63;7364601;19;20010;-57
2023/10/24 08:50:23;;;;;;;;;;;;;;;13.22;81.38;99188.97;7362167;19;20017;-56
2023/10/24 08:52:50;;;;;;;0.10;0.10;;;;;;;13.26;81.44;99189.66;7358345;19;20002;-56
2023/10/24 08:55:18;;;;;;;0.10;0.10;;;;;;;13.35;81.25;99194.38;7358243;19;20681;-58
2023/10/24 08:57:45;;;;;;;;;;;;;;;13.53;81.34;99181.94;7361510;19;20018;-57
2023/10/24 09:00:12;;;;;;;0.08;0.08;;;;;;;13.59;81.19;99185.06;7360025;19;20403;-57
2023/10/24 09:02:41;;;;;;;0.10;0.10;;;;;;;13.69;81.10;99182.75;7366712;19;20451;-57
2023/10/24 09:05:12;;;;;;;0.10;0.10;;;;;;;13.84;80.94;99194.94;7349782;19;20024;-59
2023/10/24 09:07:37;;;;;;;0.10;0.10;;;;;;;13.93;80.93;99190.91;7366466;19;20027;-58
2023/10/24 09:10:03;;;;;;;0.10;0.10;;;;;;;14.10;80.80;99192.50;7349458;19;20077;-58
2023/10/24 09:12:30;;;;;;;0.10;0.10;;;;;;;14.31;80.67;99190.34;7362731;19;20006;-58
2023/10/24 09:14:56;;;;;;;0.10;0.10;;;;;;;14.53;80.36;99195.97;7360158;19;20006;-58
2023/10/24 09:17:23;;;;;;;0.10;0.10;;;;;;;14.71;79.89;99194.81;7360680;19;20002;-59
2023/10/24 09:19:49;;;;;;;0.10;0.10;;;;;;;14.84;79.12;99201.91;7359885;19;20374;-58
2023/10/24 09:22:16;;;;;;;0.05;0.05;;;;;;;14.92;78.83;99199.63;7360851;19;20010;-59
2023/10/24 09:24:48;;;;;;;0.10;0.10;;;;;;;14.96;78.77;99193.25;7356274;19;20100;-59
2023/10/24 09:27:21;;;;;;;0.00;0.00;;;;;;;14.89;78.56;99203.28;7354135;19;20086;-59
2023/10/24 09:29:49;;;;;;;0.10;0.10;;;;;;;14.87;78.59;99196.47;7362744;19;20019;-58
2023/10/24 09:32:17;;;;;;;0.10;0.10;;;;;;;14.66;78.89;99175.03;7361580;19;20459;-58
2023/10/24 09:34:44;;;;;;;0.10;0.10;;;;;;;14.69;79.13;99196.66;7356890;19;20531;-58
2023/10/24 09:37:10;;;;;;;0.10;0.10;;;;;;;14.65;79.02;99189.94;7362642;19;21196;-58
2023/10/24 09:39:56;;;;;;;0.00;0.00;;;;;;;14.74;79.05;99194.59;7360537;19;20012;-59
2023/10/24 09:42:26;;;;;;;0.10;0.10;;;;;;;14.63;79.20;99190.97;7363389;19;20014;-58
2023/10/24 09:44:57;;;;;;;0.10;0.10;;;;;;;14.61;78.87;99201.59;7360763;19;20105;-59
2023/10/24 09:47:24;;;;;;;0.10;0.10;;;;;;;14.52;79.49;99191.66;7361532;19;20027;-58
2023/10/24 09:49:51;;;;;;;0.10;0.10;;;;;;;14.45;79.62;99196.44;7341393;19;20410;-59
2023/10/24 09:52:19;;;;;;;0.10;0.10;;;;;;;14.37;79.33;99189.97;7360558;19;20289;-58
2023/10/24 09:54:46;;;;;;;0.10;0.10;;;;;;;14.18;79.57;99180.59;7362222;19;20014;-57
2023/10/24 09:57:12;;;;;;;0.10;0.10;;;;;;;14.17;79.50;99197.28;7358170;19;20018;-58
2023/10/24 09:59:37;;;;;;;0.10;0.10;;;;;;;14.07;79.67;99192.69;7358085;19;20020;-58
2023/10/24 10:02:04;;;;;;;0.10;0.10;;;;;;;13.99;80.11;99186.16;7360493;19;20073;-57
2023/10/24 10:04:32;;;;;;;0.10;0.10;;;;;;;13.88;80.62;99185.09;7362614;19;20370;-59
2023/10/24 10:06:59;;;;;;;0.10;0.10;;;;;;;13.85;80.67;99193.16;7360429;19;20503;-57
2023/10/24 10:09:24;;;;;;;0.10;0.10;;;;;;;13.82;80.93;99190.72;7360233;19;20026;-58
2023/10/24 10:11:53;;;;;;;0.10;0.10;;;;;;;13.74;81.14;99197.28;7358287;19;20355;-58
2023/10/24 10:14:32;;;;;;;0.10;0.10;;;;;;;13.77;81.24;99190.97;7354757;19;20014;-58
2023/10/24 10:17:00;;;;;;;0.10;0.10;;;;;;;13.71;81.76;99200.06;7357090;19;20018;-59
2023/10/24 10:19:31;;;;;;;0.10;0.10;;;;;;;13.72;81.93;99199.13;7361099;19;20502;-56
2023/10/24 10:22:35;;;;;;;0.10;0.10;;;;;;;13.85;81.89;99204.50;7357379;19;20146;-59
2023/10/24 10:25:49;;;;;;;0.10;0.10;;;;;;;14.04;82.22;99209.47;7364170;19;20014;-59
2023/10/24 10:28:30;;;;;;;0.10;0.10;;;;;;;14.26;81.63;99209.84;7351127;19;20007;-58
2023/10/24 10:31:19;;;;;;;0.00;0.00;;;;;;;14.54;81.55;99214.25;7360057;19;21863;-58
2023/10/24 10:33:45;;;;;;;0.10;0.10;;;;;;;14.81;81.01;99215.25;7360623;19;20036;-59
2023/10/24 10:36:12;;;;;;;0.10;0.10;;;;;;;15.10;80.62;99216.81;7354596;19;20882;-59
2023/10/24 10:38:43;;;;;;;0.03;0.03;;;;;;;15.30;79.82;99218.16;7361140;19;20034;-58
2023/10/24 10:41:23;;;;;;;0.10;0.10;;;;;;;15.56;79.54;99219.06;7357090;19;20035;-59
2023/10/24 10:43:53;;;;;;;0.00;0.00;;;;;;;15.68;78.94;99218.28;7359211;19;20014;-59
2023/10/24 10:46:25;;;;;;;0.05;0.05;;;;;;;15.79;78.89;99226.28;7357420;19;20006;-59
2023/10/24 10:48:51;;;;;;;0.00;0.00;;;;;;;15.83;78.38;99219.88;7365322;19;20128;-59
2023/10/24 10:51:20;;;;;;;0.10;0.10;;;;;;;15.90;78.49;99227.34;7363277;19;20105;-59
2023/10/24 10:54:09;;;;;;;0.10;0.10;;;;;;;15.98;78.29;99230.31;7363488;19;20383;-59
2023/10/24 10:56:37;;;;;;;0.00;0.00;;;;;;;15.94;78.77;99224.41;7365043;19;20023;-59
2023/10/24 10:59:09;;;;;;;0.10;0.10;;;;;;;15.91;78.50;99213.22;7362497;19;20006;-58
2023/10/24 11:01:57;;;;;;;0.10;0.10;;;;;;;15.95;78.86;99225.25;7362582;19;20836;-57
2023/10/24 11:04:22;;;;;;;0.10;0.10;;;;;;;15.87;78.97;99217.03;7366288;19;20027;-59
2023/10/24 11:06:52;;;;;;;0.10;0.10;;;;;;;15.88;78.91;99221.34;7365569;19;20014;-59
2023/10/24 11:09:20;;;;;;;0.10;0.10;;;;;;;15.85;79.29;99218.91;7367771;19;20015;-59
2023/10/24 11:11:46;;;;;;;0.15;0.15;;;;;;;15.85;79.22;99208.38;7327982;19;20029;-58
2023/10/24 11:14:14;;;;;;;0.10;0.10;;;;;;;15.93;79.54;99221.88;7365111;19;20416;-59
2023/10/24 11:16:44;;;;;;;0.10;0.10;;;;;;;16.00;79.27;99220.50;7366334;19;20015;-59
2023/10/24 11:19:18;;;;;;;0.10;0.10;;;;;;;16.09;79.28;99218.09;7367331;19;20013;-59
2023/10/24 11:21:45;;;;;;;0.10;0.10;;;;;;;16.17;79.11;99217.56;7363626;19;20451;-59
2023/10/24 11:24:14;;;;;;;0.10;0.10;;;;;;;16.32;79.41;99219.13;7366008;19;20370;-59
2023/10/24 11:26:40;;;;;;;0.10;0.10;;;;;;;16.40;79.12;99210.69;7365011;19;20014;-60
2023/10/24 11:29:05;;;;;;;0.10;0.10;;;;;;;16.60;78.59;99214.53;7364654;19;20014;-59
2023/10/24 11:31:31;;;;;;;0.10;0.10;;;;;;;16.87;78.64;99214.38;7370343;19;20347;-59